LGX17BJ LIMC-LIRF
Flight info
| Callsign | LGX17BJ |
|---|---|
| Flight time | 0h 45m |
| Altitude | 33000 |
| Route | ROBAS DCT EKPAL DCT TINKU DCT XIBIL |
| Aircraft | A21N/M-SDE3FGHIRWY/LB1 |
Departure
| Time | 2026-02-17 10:03 |
|---|---|
| Airport | Milan Malpensa International Airport (LIMC) |
Arrival
| Time | 2026-02-17 10:48 |
|---|---|
| Airport | Rome–Fiumicino Leonardo da Vinci International Airport (LIRF) |
| Time | Latitude | Longitude | Altitude | Speed | Heading |
|---|---|---|---|---|---|
| 2026-02-17 09:25 | 45.62701 | 8.71632 | 742 ft | 0 kts | 349° |
| 2026-02-17 09:51 | 45.62691 | 8.71635 | 742 ft | 3 kts | 349° |
| 2026-02-17 09:51 | 45.62671 | 8.71640 | 742 ft | 3 kts | 350° |
| 2026-02-17 09:52 | 45.62651 | 8.71644 | 740 ft | 3 kts | 358° |
| 2026-02-17 09:52 | 45.62632 | 8.71642 | 740 ft | 3 kts | 22° |
| 2026-02-17 09:52 | 45.62621 | 8.71632 | 740 ft | 1 kts | 60° |
| 2026-02-17 09:52 | 45.62622 | 8.71635 | 740 ft | 2 kts | 62° |
| 2026-02-17 09:53 | 45.62628 | 8.71661 | 740 ft | 3 kts | 77° |
| 2026-02-17 09:53 | 45.62631 | 8.71689 | 742 ft | 3 kts | 80° |
| 2026-02-17 09:53 | 45.62633 | 8.71705 | 742 ft | 0 kts | 79° |
| 2026-02-17 09:57 | 45.62634 | 8.71714 | 742 ft | 2 kts | 79° |
| 2026-02-17 09:57 | 45.62639 | 8.71749 | 742 ft | 5 kts | 79° |
| 2026-02-17 09:57 | 45.62647 | 8.71809 | 742 ft | 8 kts | 79° |
| 2026-02-17 09:57 | 45.62658 | 8.71896 | 740 ft | 10 kts | 79° |
| 2026-02-17 09:58 | 45.62668 | 8.72004 | 742 ft | 12 kts | 108° |
| 2026-02-17 09:58 | 45.62618 | 8.72040 | 742 ft | 13 kts | 169° |
| 2026-02-17 09:58 | 45.62521 | 8.72067 | 742 ft | 15 kts | 169° |
| 2026-02-17 09:59 | 45.62291 | 8.72130 | 742 ft | 18 kts | 169° |
| 2026-02-17 09:59 | 45.62160 | 8.72166 | 742 ft | 20 kts | 169° |
| 2026-02-17 09:59 | 45.62020 | 8.72205 | 742 ft | 21 kts | 169° |
| 2026-02-17 09:59 | 45.61869 | 8.72246 | 741 ft | 23 kts | 169° |
| 2026-02-17 10:00 | 45.61709 | 8.72290 | 742 ft | 24 kts | 169° |
| 2026-02-17 10:00 | 45.61540 | 8.72337 | 742 ft | 25 kts | 169° |
| 2026-02-17 10:00 | 45.61431 | 8.72368 | 742 ft | 12 kts | 163° |
| 2026-02-17 10:00 | 45.61413 | 8.72482 | 742 ft | 14 kts | 79° |
| 2026-02-17 10:01 | 45.61432 | 8.72623 | 743 ft | 13 kts | 79° |
| 2026-02-17 10:01 | 45.61442 | 8.72692 | 745 ft | 8 kts | 79° |
| 2026-02-17 10:01 | 45.61494 | 8.72711 | 744 ft | 10 kts | 349° |
| 2026-02-17 10:01 | 45.61645 | 8.72671 | 746 ft | 50 kts | 349° |
| 2026-02-17 10:02 | 45.62213 | 8.72515 | 743 ft | 114 kts | 349° |
| 2026-02-17 10:02 | 45.63159 | 8.72255 | 744 ft | 160 kts | 349° |
| 2026-02-17 10:02 | 45.64303 | 8.71944 | 1153 ft | 165 kts | 347° |
| 2026-02-17 10:03 | 45.66378 | 8.70590 | 2237 ft | 176 kts | 324° |
| 2026-02-17 10:03 | 45.67403 | 8.69513 | 2805 ft | 190 kts | 325° |
| 2026-02-17 10:03 | 45.68512 | 8.68383 | 3509 ft | 202 kts | 322° |
| 2026-02-17 10:03 | 45.69635 | 8.67072 | 4177 ft | 216 kts | 320° |
| 2026-02-17 10:04 | 45.70822 | 8.65683 | 4977 ft | 223 kts | 320° |
| 2026-02-17 10:04 | 45.72037 | 8.64266 | 5893 ft | 230 kts | 320° |
| 2026-02-17 10:04 | 45.73437 | 8.63098 | 6682 ft | 238 kts | 343° |
| 2026-02-17 10:04 | 45.75083 | 8.62960 | 7606 ft | 241 kts | 10° |
| 2026-02-17 10:05 | 45.76595 | 8.63961 | 8565 ft | 244 kts | 37° |
| 2026-02-17 10:05 | 45.77636 | 8.65902 | 9467 ft | 252 kts | 63° |
| 2026-02-17 10:05 | 45.78187 | 8.68324 | 10287 ft | 260 kts | 68° |
| 2026-02-17 10:05 | 45.78654 | 8.70853 | 11111 ft | 264 kts | 69° |
| 2026-02-17 10:06 | 45.78820 | 8.73518 | 11875 ft | 280 kts | 94° |
| 2026-02-17 10:06 | 45.78081 | 8.76220 | 12334 ft | 308 kts | 121° |
| 2026-02-17 10:06 | 45.76736 | 8.78753 | 12704 ft | 330 kts | 126° |
| 2026-02-17 10:07 | 45.73726 | 8.84234 | 13385 ft | 370 kts | 124° |
| 2026-02-17 10:07 | 45.72147 | 8.87248 | 13692 ft | 388 kts | 124° |
| 2026-02-17 10:07 | 45.70514 | 8.90434 | 13988 ft | 405 kts | 123° |
| 2026-02-17 10:07 | 45.68841 | 8.93726 | 14559 ft | 412 kts | 123° |
| 2026-02-17 10:08 | 45.67150 | 8.97066 | 15200 ft | 416 kts | 123° |
| 2026-02-17 10:08 | 45.65444 | 9.00427 | 15828 ft | 420 kts | 123° |
| 2026-02-17 10:08 | 45.63603 | 9.03702 | 16461 ft | 426 kts | 130° |
| 2026-02-17 10:08 | 45.61605 | 9.06849 | 17065 ft | 429 kts | 130° |
| 2026-02-17 10:09 | 45.59585 | 9.10008 | 17632 ft | 432 kts | 130° |
| 2026-02-17 10:09 | 45.57550 | 9.13191 | 18188 ft | 436 kts | 130° |
| 2026-02-17 10:09 | 45.55499 | 9.16408 | 18622 ft | 441 kts | 129° |
| 2026-02-17 10:09 | 45.53426 | 9.19659 | 19034 ft | 447 kts | 130° |
| 2026-02-17 10:10 | 45.51316 | 9.22967 | 19419 ft | 452 kts | 129° |
| 2026-02-17 10:10 | 45.49189 | 9.26300 | 19823 ft | 458 kts | 129° |
| 2026-02-17 10:10 | 45.47032 | 9.29674 | 20201 ft | 463 kts | 129° |
| 2026-02-17 10:11 | 45.42644 | 9.36523 | 21004 ft | 472 kts | 129° |
| 2026-02-17 10:11 | 45.40423 | 9.39980 | 21308 ft | 474 kts | 129° |
| 2026-02-17 10:11 | 45.38189 | 9.43454 | 21695 ft | 478 kts | 129° |
| 2026-02-17 10:11 | 45.35936 | 9.46963 | 22083 ft | 483 kts | 129° |
| 2026-02-17 10:12 | 45.33655 | 9.50509 | 22458 ft | 489 kts | 129° |
| 2026-02-17 10:12 | 45.31352 | 9.54086 | 22825 ft | 493 kts | 129° |
| 2026-02-17 10:12 | 45.29019 | 9.57701 | 23221 ft | 498 kts | 129° |
| 2026-02-17 10:12 | 45.26658 | 9.61345 | 23555 ft | 504 kts | 129° |
| 2026-02-17 10:13 | 45.24279 | 9.65017 | 23881 ft | 509 kts | 129° |
| 2026-02-17 10:13 | 45.21865 | 9.68729 | 24256 ft | 513 kts | 129° |
| 2026-02-17 10:13 | 45.19234 | 9.72175 | 24659 ft | 519 kts | 141° |
| 2026-02-17 10:13 | 45.16105 | 9.74767 | 24927 ft | 524 kts | 155° |
| 2026-02-17 10:14 | 45.12746 | 9.76851 | 25180 ft | 530 kts | 158° |
| 2026-02-17 10:14 | 45.09330 | 9.78902 | 25443 ft | 536 kts | 158° |
| 2026-02-17 10:14 | 45.05883 | 9.80992 | 25721 ft | 541 kts | 158° |
| 2026-02-17 10:15 | 44.98921 | 9.85285 | 26275 ft | 551 kts | 158° |
| 2026-02-17 10:15 | 44.95398 | 9.87465 | 26540 ft | 555 kts | 158° |
| 2026-02-17 10:15 | 44.91838 | 9.89667 | 26768 ft | 561 kts | 158° |
| 2026-02-17 10:15 | 44.88245 | 9.91881 | 27000 ft | 567 kts | 158° |
| 2026-02-17 10:16 | 44.84624 | 9.94113 | 27357 ft | 569 kts | 158° |
| 2026-02-17 10:16 | 44.80995 | 9.96344 | 27829 ft | 568 kts | 158° |
| 2026-02-17 10:16 | 44.77371 | 9.98570 | 28179 ft | 570 kts | 158° |
| 2026-02-17 10:16 | 44.73729 | 10.00806 | 28426 ft | 572 kts | 158° |
| 2026-02-17 10:17 | 44.70069 | 10.03045 | 28671 ft | 577 kts | 158° |
| 2026-02-17 10:17 | 44.66373 | 10.05300 | 28923 ft | 580 kts | 158° |
| 2026-02-17 10:17 | 44.62662 | 10.07560 | 29249 ft | 583 kts | 158° |
| 2026-02-17 10:17 | 44.58935 | 10.09834 | 29562 ft | 585 kts | 159° |
| 2026-02-17 10:18 | 44.55189 | 10.12117 | 29864 ft | 588 kts | 159° |
| 2026-02-17 10:18 | 44.51433 | 10.14401 | 30044 ft | 589 kts | 159° |
| 2026-02-17 10:18 | 44.47666 | 10.16627 | 30447 ft | 587 kts | 161° |
| 2026-02-17 10:19 | 44.40076 | 10.20660 | 31408 ft | 579 kts | 162° |
| 2026-02-17 10:19 | 44.36333 | 10.22640 | 32008 ft | 572 kts | 162° |
| 2026-02-17 10:19 | 44.32626 | 10.24599 | 32497 ft | 567 kts | 162° |
| 2026-02-17 10:19 | 44.28944 | 10.26540 | 32751 ft | 563 kts | 162° |
| 2026-02-17 10:20 | 44.21657 | 10.30381 | 32752 ft | 559 kts | 162° |
| 2026-02-17 10:20 | 44.14390 | 10.34209 | 32681 ft | 558 kts | 162° |
| 2026-02-17 10:21 | 44.07126 | 10.38014 | 32718 ft | 557 kts | 162° |
| 2026-02-17 10:21 | 43.99876 | 10.41794 | 32734 ft | 555 kts | 162° |
| 2026-02-17 10:22 | 43.92709 | 10.45527 | 32703 ft | 553 kts | 163° |
| 2026-02-17 10:23 | 43.81762 | 10.51217 | 32775 ft | 562 kts | 163° |
| 2026-02-17 10:23 | 43.74419 | 10.54926 | 32781 ft | 560 kts | 165° |
| 2026-02-17 10:24 | 43.67045 | 10.58541 | 32826 ft | 564 kts | 157° |
| 2026-02-17 10:24 | 43.63708 | 10.61351 | 32807 ft | 563 kts | 142° |
| 2026-02-17 10:24 | 43.60644 | 10.64705 | 32797 ft | 561 kts | 139° |
| 2026-02-17 10:25 | 43.54583 | 10.71486 | 32760 ft | 561 kts | 140° |
| 2026-02-17 10:25 | 43.48446 | 10.78124 | 32748 ft | 561 kts | 141° |
| 2026-02-17 10:26 | 43.42274 | 10.84739 | 32769 ft | 564 kts | 141° |
| 2026-02-17 10:26 | 43.36091 | 10.91355 | 32768 ft | 562 kts | 141° |
| 2026-02-17 10:27 | 43.26824 | 11.01253 | 32752 ft | 568 kts | 141° |
| 2026-02-17 10:27 | 43.20544 | 11.07935 | 32783 ft | 572 kts | 141° |
| 2026-02-17 10:28 | 43.17409 | 11.11256 | 32629 ft | 565 kts | 141° |
| 2026-02-17 10:28 | 43.14291 | 11.14558 | 31730 ft | 568 kts | 141° |
| 2026-02-17 10:28 | 43.11153 | 11.17887 | 30771 ft | 574 kts | 141° |
| 2026-02-17 10:28 | 43.07980 | 11.21245 | 29892 ft | 579 kts | 140° |
| 2026-02-17 10:29 | 43.04790 | 11.24623 | 28940 ft | 581 kts | 140° |
| 2026-02-17 10:29 | 43.01602 | 11.27996 | 28220 ft | 576 kts | 140° |
| 2026-02-17 10:29 | 42.98456 | 11.31317 | 27747 ft | 567 kts | 141° |
| 2026-02-17 10:29 | 42.95360 | 11.34579 | 27264 ft | 557 kts | 141° |
| 2026-02-17 10:30 | 42.92307 | 11.37783 | 26842 ft | 552 kts | 141° |
| 2026-02-17 10:30 | 42.89284 | 11.40952 | 26642 ft | 544 kts | 141° |
| 2026-02-17 10:30 | 42.86288 | 11.44091 | 25944 ft | 540 kts | 141° |
| 2026-02-17 10:31 | 42.80378 | 11.50271 | 24672 ft | 529 kts | 141° |
| 2026-02-17 10:31 | 42.77482 | 11.53298 | 24168 ft | 521 kts | 141° |
| 2026-02-17 10:31 | 42.74628 | 11.56273 | 23670 ft | 513 kts | 141° |
| 2026-02-17 10:31 | 42.71815 | 11.59200 | 23090 ft | 505 kts | 141° |
| 2026-02-17 10:32 | 42.69051 | 11.62074 | 22545 ft | 496 kts | 141° |
| 2026-02-17 10:32 | 42.66333 | 11.64897 | 21964 ft | 488 kts | 141° |
| 2026-02-17 10:32 | 42.63661 | 11.67674 | 21443 ft | 479 kts | 141° |
| 2026-02-17 10:32 | 42.61039 | 11.70394 | 20948 ft | 470 kts | 141° |
| 2026-02-17 10:33 | 42.58460 | 11.73064 | 20410 ft | 462 kts | 141° |
| 2026-02-17 10:33 | 42.55923 | 11.75684 | 19865 ft | 455 kts | 141° |
| 2026-02-17 10:33 | 42.53435 | 11.78249 | 19210 ft | 445 kts | 141° |
| 2026-02-17 10:33 | 42.50996 | 11.80769 | 18587 ft | 435 kts | 141° |
| 2026-02-17 10:34 | 42.48616 | 11.83225 | 17942 ft | 426 kts | 141° |
| 2026-02-17 10:34 | 42.46282 | 11.85627 | 17161 ft | 418 kts | 141° |
| 2026-02-17 10:34 | 42.43969 | 11.87976 | 16358 ft | 412 kts | 144° |
| 2026-02-17 10:35 | 42.39239 | 11.92182 | 14801 ft | 402 kts | 147° |
| 2026-02-17 10:35 | 42.36900 | 11.94226 | 14030 ft | 398 kts | 146° |
| 2026-02-17 10:35 | 42.34581 | 11.96262 | 13421 ft | 395 kts | 146° |
| 2026-02-17 10:35 | 42.32295 | 11.98273 | 12830 ft | 390 kts | 146° |
| 2026-02-17 10:36 | 42.30031 | 12.00267 | 12250 ft | 386 kts | 146° |
| 2026-02-17 10:36 | 42.27793 | 12.02234 | 11679 ft | 382 kts | 146° |
| 2026-02-17 10:36 | 42.25572 | 12.04186 | 11126 ft | 379 kts | 146° |
| 2026-02-17 10:36 | 42.23384 | 12.06113 | 10622 ft | 374 kts | 146° |
| 2026-02-17 10:37 | 42.21218 | 12.08019 | 10135 ft | 369 kts | 146° |
| 2026-02-17 10:37 | 42.19100 | 12.09883 | 9862 ft | 358 kts | 146° |
| 2026-02-17 10:37 | 42.17049 | 12.11681 | 9651 ft | 345 kts | 146° |
| 2026-02-17 10:37 | 42.15067 | 12.13415 | 9472 ft | 333 kts | 146° |
| 2026-02-17 10:38 | 42.13162 | 12.15084 | 9302 ft | 321 kts | 146° |
| 2026-02-17 10:38 | 42.11289 | 12.16605 | 9096 ft | 311 kts | 154° |
| 2026-02-17 10:38 | 42.09346 | 12.17723 | 8740 ft | 307 kts | 158° |
| 2026-02-17 10:39 | 42.06062 | 12.19475 | 8116 ft | 304 kts | 155° |
| 2026-02-17 10:39 | 42.04149 | 12.20651 | 7776 ft | 300 kts | 154° |
| 2026-02-17 10:39 | 42.02285 | 12.21814 | 7591 ft | 291 kts | 154° |
| 2026-02-17 10:39 | 42.00481 | 12.22935 | 7431 ft | 281 kts | 154° |
| 2026-02-17 10:40 | 41.98736 | 12.24015 | 7256 ft | 272 kts | 154° |
| 2026-02-17 10:40 | 41.96489 | 12.25393 | 6965 ft | 266 kts | 154° |
| 2026-02-17 10:40 | 41.94809 | 12.26420 | 6728 ft | 265 kts | 154° |
| 2026-02-17 10:40 | 41.93674 | 12.27118 | 6557 ft | 265 kts | 154° |
| 2026-02-17 10:41 | 41.92003 | 12.28143 | 6304 ft | 263 kts | 154° |
| 2026-02-17 10:41 | 41.90338 | 12.29157 | 5992 ft | 262 kts | 154° |
| 2026-02-17 10:41 | 41.88679 | 12.30163 | 5624 ft | 262 kts | 154° |
| 2026-02-17 10:41 | 41.87013 | 12.31167 | 5267 ft | 262 kts | 154° |
| 2026-02-17 10:42 | 41.85354 | 12.32171 | 4935 ft | 262 kts | 154° |
| 2026-02-17 10:42 | 41.83698 | 12.33175 | 4570 ft | 261 kts | 154° |
| 2026-02-17 10:42 | 41.82077 | 12.34154 | 4182 ft | 256 kts | 154° |
| 2026-02-17 10:43 | 41.78915 | 12.36078 | 3445 ft | 244 kts | 154° |
| 2026-02-17 10:43 | 41.77395 | 12.37014 | 3100 ft | 237 kts | 154° |
| 2026-02-17 10:43 | 41.75869 | 12.37741 | 2827 ft | 223 kts | 174° |
| 2026-02-17 10:43 | 41.74384 | 12.37773 | 2565 ft | 211 kts | 184° |
| 2026-02-17 10:44 | 41.72909 | 12.37725 | 2216 ft | 208 kts | 184° |
| 2026-02-17 10:44 | 41.71579 | 12.37274 | 1875 ft | 193 kts | 218° |
| 2026-02-17 10:44 | 41.70776 | 12.36045 | 1695 ft | 164 kts | 251° |
| 2026-02-17 10:44 | 41.70575 | 12.34648 | 1570 ft | 149 kts | 287° |
| 2026-02-17 10:45 | 41.71063 | 12.33538 | 1497 ft | 144 kts | 313° |
| 2026-02-17 10:45 | 41.71735 | 12.32552 | 1512 ft | 144 kts | 314° |
| 2026-02-17 10:45 | 41.72427 | 12.31586 | 1492 ft | 143 kts | 321° |
| 2026-02-17 10:45 | 41.73299 | 12.30942 | 1492 ft | 144 kts | 335° |
| 2026-02-17 10:46 | 41.74208 | 12.30512 | 1471 ft | 127 kts | 340° |
| 2026-02-17 10:46 | 41.75023 | 12.30162 | 1340 ft | 122 kts | 341° |
| 2026-02-17 10:46 | 41.75828 | 12.29822 | 1167 ft | 121 kts | 340° |
| 2026-02-17 10:47 | 41.77437 | 12.29150 | 839 ft | 121 kts | 339° |
| 2026-02-17 10:47 | 41.78256 | 12.28799 | 666 ft | 126 kts | 341° |
| 2026-02-17 10:47 | 41.79100 | 12.28446 | 528 ft | 127 kts | 342° |
| 2026-02-17 10:47 | 41.79929 | 12.28111 | 377 ft | 123 kts | 340° |
| 2026-02-17 10:48 | 41.80747 | 12.27772 | 192 ft | 123 kts | 339° |
| 2026-02-17 10:48 | 41.81554 | 12.27427 | 29 ft | 120 kts | 338° |
| 2026-02-17 10:48 | 41.82208 | 12.27152 | 16 ft | 54 kts | 342° |
| 2026-02-17 10:48 | 41.82497 | 12.27006 | 16 ft | 33 kts | 328° |
| 2026-02-17 10:49 | 41.82674 | 12.26803 | 16 ft | 34 kts | 312° |
| 2026-02-17 10:49 | 41.82738 | 12.26690 | 16 ft | 14 kts | 277° |
| 2026-02-17 10:49 | 41.82661 | 12.26637 | 16 ft | 16 kts | 162° |
| 2026-02-17 10:49 | 41.82546 | 12.26686 | 16 ft | 18 kts | 162° |
| 2026-02-17 10:50 | 41.82420 | 12.26739 | 16 ft | 20 kts | 162° |
| 2026-02-17 10:50 | 41.82282 | 12.26796 | 18 ft | 21 kts | 163° |
| 2026-02-17 10:50 | 41.82135 | 12.26858 | 16 ft | 23 kts | 162° |
| 2026-02-17 10:51 | 41.81808 | 12.26994 | 19 ft | 26 kts | 162° |
| 2026-02-17 10:51 | 41.81628 | 12.27070 | 17 ft | 28 kts | 162° |
| 2026-02-17 10:51 | 41.81438 | 12.27149 | 17 ft | 29 kts | 162° |
| 2026-02-17 10:51 | 41.81248 | 12.27229 | 17 ft | 28 kts | 163° |
| 2026-02-17 10:52 | 41.81068 | 12.27303 | 18 ft | 26 kts | 163° |
| 2026-02-17 10:52 | 41.80888 | 12.27346 | 18 ft | 27 kts | 191° |
| 2026-02-17 10:52 | 41.80705 | 12.27298 | 18 ft | 28 kts | 209° |
| 2026-02-17 10:52 | 41.80614 | 12.27069 | 21 ft | 29 kts | 249° |
| 2026-02-17 10:53 | 41.80544 | 12.26817 | 21 ft | 29 kts | 250° |
| 2026-02-17 10:53 | 41.80476 | 12.26569 | 21 ft | 29 kts | 250° |
| 2026-02-17 10:53 | 41.80420 | 12.26389 | 21 ft | 18 kts | 225° |
| 2026-02-17 10:53 | 41.80302 | 12.26393 | 20 ft | 19 kts | 159° |
| 2026-02-17 10:54 | 41.80175 | 12.26381 | 19 ft | 20 kts | 206° |
| 2026-02-17 10:54 | 41.80049 | 12.26303 | 21 ft | 20 kts | 205° |
| 2026-02-17 10:54 | 41.79916 | 12.26220 | 19 ft | 21 kts | 204° |
| 2026-02-17 10:55 | 41.79771 | 12.26053 | 19 ft | 15 kts | 294° |
| 2026-02-17 10:55 | 41.79816 | 12.25923 | 21 ft | 16 kts | 295° |
| 2026-02-17 10:55 | 41.79865 | 12.25785 | 19 ft | 17 kts | 295° |
| 2026-02-17 10:55 | 41.79916 | 12.25641 | 21 ft | 17 kts | 296° |
| 2026-02-17 10:56 | 41.79943 | 12.25562 | 21 ft | 9 kts | 278° |
| 2026-02-17 10:56 | 41.79891 | 12.25507 | 19 ft | 11 kts | 205° |
| 2026-02-17 10:56 | 41.79822 | 12.25464 | 19 ft | 9 kts | 205° |
| 2026-02-17 10:56 | 41.79776 | 12.25435 | 19 ft | 7 kts | 206° |
| 2026-02-17 10:57 | 41.79735 | 12.25436 | 19 ft | 6 kts | 126° |
| 2026-02-17 10:57 | 41.79724 | 12.25468 | 19 ft | 3 kts | 115° |
| 2026-02-17 10:57 | 41.79721 | 12.25476 | 19 ft | 0 kts | 115° |
| 2026-02-17 10:57 | 41.79721 | 12.25477 | 19 ft | 0 kts | 115° |